Dana Point, CA

11:28 AM PDT on July 03, 2015 (GMT -0700)
Dana Hills | | Change Station
CLOSE
Current Station
Personal Weather Station
Location: Dana Point, CA
Elevation: 286 ft
Nearby Weather Stations

Elev 286 ft 33.48 °N, 117.70 °W | Updated 4 minutes ago

Overcast
Overcast
68.7 °F
Feels Like 68.7 °F
N
4.0
Wind Variable Wind from West
Gusts 4.0 mph

Today
High -- | Low -- °F
--% Chance of Precip.
Yesterday
High -- | Low -- °F
Precip. -- in
5:45 AM 8:04 PM
Waning Gibbous, 96% visible
Pressure 29.97 in
Visibility 9.0 miles
Clouds Scattered Clouds 1600 ft
Mostly Cloudy 25000 ft
Dew Point 64 °F
Humidity 85%
Rainfall 0.00 in
Snow Depth Not available.
UV 5 out of 12
Pollen 3.60 out of 12
Air Quality Not available.
Flu Activity Not available.
METAR KSNA 031753Z 00000KT 9SM SCT016 BKN250 21/16 A2997 RMK AO2 SLP149 T02110161 10217 20183 50001

More Conditions Fewer Conditions

Pressure 29.97 in
Visibility 9.0 miles
Clouds Scattered Clouds 1600 ft
Mostly Cloudy 25000 ft
Dew Point 64 °F
Humidity 85%
Rainfall 0.00 in
Snow Depth Not available.
UV 5 out of 12
Pollen 3.60 out of 12
Air Quality Not available.
Flu Activity Not available.
METAR KSNA 031753Z 00000KT 9SM SCT016 BKN250 21/16 A2997 RMK AO2 SLP149 T02110161 10217 20183 50001

More Conditions Fewer Conditions

10-Day Weather Forecast

×

Almanac

Astronomy

Jul. 03, 2015 Rise Set
Actual Time
Civil Twilight
Nautical Twilight
Astronomical Twilight
Moon
Length of Visible Light
Length of Day
Tomorrow will be .
, % of the Moon is Illuminated

Today's Extremes

State Highs State Lows

Community

WunderPhotos

Upload Photos

1,834,736 photos uploaded!

WunderBlogs® & News

Nearby

Air Quality

  Air Quality AQ Index Pollutant
Not available.

Snow Depth

Station Depth Elevation

Earthquake Activity

City Distance Mag. Time & Date
Minimum magnitude displayed is 2.5.

Coastal Water Temperatures

Place Temperature

Stations

Nearby Weather Stations

Station Location Temp. Windchill Dew Point Humidity Wind Precip. Elev Updated Type